createdAt,value
2023-12-05T00:01:44.588Z,26.67
2023-12-05T00:04:12.790Z,26.40
2023-12-05T00:07:14.705Z,26.77
2023-12-05T00:09:42.653Z,25.13
2023-12-05T00:12:11.874Z,26.10
2023-12-05T00:14:39.842Z,26.37
2023-12-05T00:17:07.674Z,25.90
2023-12-05T00:19:35.544Z,25.93
2023-12-05T00:22:03.765Z,26.47
2023-12-05T00:24:31.565Z,27.30
2023-12-05T00:26:59.571Z,25.43
2023-12-05T00:29:29.287Z,25.80
2023-12-05T00:31:56.994Z,25.20
2023-12-05T00:34:25.026Z,25.50
2023-12-05T00:36:53.271Z,27.60
2023-12-05T00:39:21.779Z,26.23
2023-12-05T00:41:50.016Z,26.40
2023-12-05T00:44:17.921Z,26.23
2023-12-05T00:46:47.151Z,25.30
2023-12-05T00:49:14.978Z,26.00
2023-12-05T00:51:42.944Z,25.67
2023-12-05T00:54:12.945Z,25.90
2023-12-05T00:56:40.860Z,26.33
2023-12-05T00:59:08.879Z,26.30
2023-12-05T01:01:36.754Z,26.83
2023-12-05T01:04:06.322Z,25.37
2023-12-05T01:06:34.516Z,25.93
2023-12-05T01:09:02.287Z,26.70
2023-12-05T01:11:30.070Z,25.07
2023-12-05T01:13:58.413Z,26.40
2023-12-05T01:16:26.286Z,26.50
2023-12-05T01:18:54.151Z,26.07
2023-12-05T01:21:23.536Z,25.03
2023-12-05T01:23:51.781Z,25.43
2023-12-05T01:26:25.741Z,25.77
2023-12-05T01:28:53.474Z,26.60
2023-12-05T01:31:21.226Z,24.53
2023-12-05T01:33:49.467Z,24.67
2023-12-05T01:36:17.281Z,27.23
2023-12-05T01:38:46.505Z,24.70
2023-12-05T01:41:14.866Z,25.03
2023-12-05T01:43:43.287Z,25.50
2023-12-05T01:46:12.053Z,24.60
2023-12-05T01:48:41.753Z,24.63
2023-12-05T01:51:10.583Z,26.30
2023-12-05T01:53:40.120Z,26.07
2023-12-05T01:56:11.186Z,25.13
2023-12-05T01:58:39.346Z,25.80
2023-12-05T02:01:07.844Z,25.13
2023-12-05T02:03:35.987Z,25.43
2023-12-05T02:06:04.088Z,25.37
2023-12-05T02:08:32.524Z,27.30
2023-12-05T02:11:01.127Z,24.87
2023-12-05T02:13:30.321Z,26.40
2023-12-05T02:16:00.377Z,25.47
2023-12-05T02:18:30.405Z,25.13
2023-12-05T02:21:06.133Z,25.70
2023-12-05T02:23:45.105Z,25.83
2023-12-05T02:26:19.876Z,24.93
2023-12-05T02:28:49.440Z,25.73
2023-12-05T02:31:18.073Z,24.90
2023-12-05T02:33:46.064Z,24.30
2023-12-05T02:36:18.550Z,24.73
2023-12-05T02:38:50.817Z,25.30
2023-12-05T02:41:21.327Z,25.97
2023-12-05T02:43:52.379Z,25.80
2023-12-05T02:46:20.591Z,25.60
2023-12-05T02:48:50.201Z,26.07
2023-12-05T02:51:20.690Z,24.37
2023-12-05T02:53:49.926Z,25.37
2023-12-05T02:56:18.333Z,26.43
2023-12-05T02:58:46.092Z,25.33
2023-12-05T03:01:15.209Z,25.37
2023-12-05T03:03:43.584Z,25.43
2023-12-05T03:06:11.718Z,24.03
2023-12-05T03:08:39.555Z,24.70
2023-12-05T03:11:10.006Z,25.00
2023-12-05T03:13:40.664Z,25.47
2023-12-05T03:16:09.562Z,27.10
2023-12-05T03:18:38.790Z,25.57
2023-12-05T03:21:07.259Z,25.43
2023-12-05T03:23:35.627Z,26.60
2023-12-05T03:26:03.605Z,26.10
2023-12-05T03:28:31.364Z,25.83
2023-12-05T03:30:59.193Z,25.10
2023-12-05T03:33:26.960Z,26.00
2023-12-05T03:35:57.706Z,26.97
2023-12-05T03:38:25.738Z,25.80
2023-12-05T03:40:53.528Z,25.93
2023-12-05T03:43:21.664Z,25.33
2023-12-05T03:45:49.810Z,25.07
2023-12-05T03:48:17.741Z,24.53
2023-12-05T03:50:45.775Z,25.30
2023-12-05T03:53:15.029Z,26.37
2023-12-05T03:55:42.777Z,25.13
2023-12-05T03:58:10.484Z,26.00
2023-12-05T04:00:38.426Z,24.73
2023-12-05T04:03:06.438Z,26.07
2023-12-05T04:05:34.503Z,25.57
2023-12-05T04:08:03.220Z,24.33
2023-12-05T04:10:32.370Z,25.80
2023-12-05T04:13:00.277Z,24.53
2023-12-05T04:15:28.742Z,24.43
2023-12-05T04:17:57.403Z,25.50
2023-12-05T04:20:25.657Z,26.33
2023-12-05T04:22:54.284Z,26.07
2023-12-05T04:25:22.889Z,26.63
2023-12-05T04:27:52.004Z,25.00
2023-12-05T04:30:20.962Z,25.50
2023-12-05T04:32:50.386Z,25.83
2023-12-05T04:35:18.284Z,25.90
2023-12-05T04:37:46.383Z,25.60
2023-12-05T04:40:14.826Z,25.00
2023-12-05T04:42:42.915Z,25.00
2023-12-05T04:45:12.650Z,25.50
2023-12-05T04:47:40.425Z,24.30
2023-12-05T04:50:08.608Z,26.17
2023-12-05T04:52:37.584Z,25.43
2023-12-05T04:55:05.721Z,25.27
2023-12-05T04:57:33.527Z,25.77
2023-12-05T05:00:01.685Z,23.87
2023-12-05T05:02:30.822Z,24.87
2023-12-05T05:04:58.972Z,23.83
2023-12-05T05:07:27.135Z,24.73
2023-12-05T05:09:54.890Z,25.10
2023-12-05T05:12:23.366Z,25.90
2023-12-05T05:14:51.739Z,23.80
2023-12-05T05:17:19.537Z,25.57
2023-12-05T05:19:49.136Z,24.93
2023-12-05T05:22:17.574Z,25.57
2023-12-05T05:24:45.511Z,24.43
2023-12-05T05:27:16.205Z,25.50
2023-12-05T05:29:44.730Z,24.40
2023-12-05T05:32:12.730Z,24.50
2023-12-05T05:34:40.411Z,25.00
2023-12-05T05:37:09.915Z,24.73
2023-12-05T05:39:37.774Z,24.73
2023-12-05T05:42:04.963Z,25.70
2023-12-05T05:44:33.337Z,24.17
2023-12-05T05:47:01.185Z,23.00
2023-12-05T05:49:28.883Z,23.40
2023-12-05T05:51:57.147Z,23.67
2023-12-05T05:54:27.208Z,24.67
2023-12-05T05:56:55.121Z,23.20
2023-12-05T05:59:24.115Z,24.30
2023-12-05T06:01:52.024Z,23.60
2023-12-05T06:04:19.864Z,23.73
2023-12-05T06:06:48.170Z,23.20
2023-12-05T06:09:16.843Z,24.10
2023-12-05T06:11:45.993Z,22.00
2023-12-05T06:14:14.189Z,23.10
2023-12-05T06:16:41.830Z,24.00
2023-12-05T06:19:09.714Z,24.37
2023-12-05T06:21:37.728Z,24.20
2023-12-05T06:24:05.728Z,23.30
2023-12-05T06:26:33.473Z,22.37
2023-12-05T06:29:03.548Z,24.53
2023-12-05T06:31:31.748Z,22.00
2023-12-05T06:34:00.098Z,23.57
2023-12-05T06:36:28.064Z,23.97
2023-12-05T06:38:56.109Z,24.10
2023-12-05T06:41:23.888Z,23.10
2023-12-05T06:43:52.314Z,23.13
2023-12-05T06:46:21.357Z,23.87
2023-12-05T06:48:50.179Z,25.77
2023-12-05T06:51:21.752Z,23.73
2023-12-05T06:53:51.254Z,24.63
2023-12-05T06:56:20.969Z,24.80
2023-12-05T06:58:49.913Z,24.60
2023-12-05T07:01:18.912Z,24.87
2023-12-05T07:03:53.838Z,24.43
2023-12-05T07:06:25.543Z,22.40
2023-12-05T07:08:53.373Z,24.03
2023-12-05T07:11:21.676Z,24.00
2023-12-05T07:13:50.197Z,23.63
2023-12-05T07:16:18.296Z,24.53
2023-12-05T07:18:46.208Z,22.80
2023-12-05T07:21:16.012Z,23.77
2023-12-05T07:23:46.814Z,24.70
2023-12-05T07:26:17.957Z,24.17
2023-12-05T07:28:46.892Z,24.37
2023-12-05T07:31:15.061Z,25.57
2023-12-05T07:33:42.961Z,25.00
2023-12-05T07:36:11.426Z,24.20
2023-12-05T07:38:40.537Z,24.77
2023-12-05T07:41:08.532Z,24.60
2023-12-05T07:43:36.316Z,26.00
2023-12-05T07:46:07.490Z,24.40
2023-12-05T07:48:37.412Z,24.73
2023-12-05T07:51:05.770Z,23.23
2023-12-05T07:53:34.324Z,24.00
2023-12-05T07:56:04.700Z,25.67
2023-12-05T07:58:32.513Z,25.67
2023-12-05T08:01:00.574Z,24.03
2023-12-05T08:03:30.244Z,24.20
2023-12-05T08:05:58.255Z,25.13
2023-12-05T08:08:26.467Z,25.20
2023-12-05T08:10:54.409Z,25.80
2023-12-05T08:13:23.728Z,24.70
2023-12-05T08:15:51.933Z,25.43
2023-12-05T08:18:19.733Z,24.60
2023-12-05T08:20:47.548Z,25.30
2023-12-05T08:23:15.495Z,24.80
2023-12-05T08:25:43.497Z,25.73
2023-12-05T08:28:11.337Z,26.07
2023-12-05T08:30:42.880Z,24.10
2023-12-05T08:33:11.713Z,25.07
2023-12-05T08:35:39.521Z,25.20
2023-12-05T08:38:07.565Z,24.73
2023-12-05T08:40:35.672Z,25.10
2023-12-05T08:43:04.819Z,25.13
2023-12-05T08:45:33.274Z,25.50
2023-12-05T08:48:02.510Z,24.37
2023-12-05T08:50:30.614Z,24.73
2023-12-05T08:52:59.089Z,26.13
2023-12-05T08:55:26.979Z,24.60
2023-12-05T08:57:55.168Z,24.43
2023-12-05T09:00:23.174Z,23.60
2023-12-05T09:02:50.956Z,24.83
2023-12-05T09:05:20.260Z,23.60
2023-12-05T09:07:50.896Z,23.93
2023-12-05T09:10:19.977Z,23.50
2023-12-05T09:12:48.123Z,22.43
2023-12-05T09:15:16.478Z,24.20
2023-12-05T09:17:45.633Z,23.50
2023-12-05T09:20:13.718Z,24.37
2023-12-05T09:22:43.195Z,23.23
2023-12-05T09:25:11.229Z,23.40
2023-12-05T09:27:39.039Z,23.90
2023-12-05T09:30:07.605Z,24.30
2023-12-05T09:32:35.418Z,22.90
2023-12-05T09:35:04.190Z,22.23
2023-12-05T09:37:32.260Z,22.50
2023-12-05T09:40:02.045Z,21.80
2023-12-05T09:42:31.090Z,22.97
2023-12-05T09:45:00.369Z,21.93
2023-12-05T09:47:29.721Z,23.23
2023-12-05T09:49:58.870Z,22.20
2023-12-05T09:52:30.110Z,22.13
2023-12-05T09:55:00.078Z,21.93
2023-12-05T09:57:30.031Z,22.37
2023-12-05T09:59:57.931Z,22.60
2023-12-05T10:02:26.330Z,22.70
2023-12-05T10:04:57.200Z,20.93
2023-12-05T10:07:28.031Z,20.50
2023-12-05T10:09:59.011Z,22.13
2023-12-05T10:12:27.371Z,21.80
2023-12-05T10:14:56.621Z,20.17
2023-12-05T10:17:27.259Z,20.40
2023-12-05T10:19:55.187Z,20.83
2023-12-05T10:22:23.866Z,21.30
2023-12-05T10:27:39.794Z,21.00
2023-12-05T10:30:10.257Z,19.63
2023-12-05T10:32:39.049Z,20.17
2023-12-05T10:35:07.293Z,20.53
2023-12-05T10:37:35.500Z,20.40
2023-12-05T10:40:06.086Z,20.60
2023-12-05T10:42:34.052Z,21.70
2023-12-05T10:45:07.152Z,20.40
2023-12-05T10:47:36.819Z,20.13
2023-12-05T10:50:05.472Z,20.27
2023-12-05T10:52:35.684Z,19.97
2023-12-05T10:55:03.630Z,19.90
2023-12-05T10:57:34.368Z,20.80
2023-12-05T11:00:05.022Z,21.07
2023-12-05T11:02:33.064Z,19.97
2023-12-05T11:05:04.157Z,20.97
2023-12-05T11:07:31.961Z,20.83
2023-12-05T11:09:59.809Z,19.60
2023-12-05T11:12:27.994Z,19.87
2023-12-05T11:14:57.653Z,20.00
2023-12-05T11:17:29.502Z,19.70
2023-12-05T11:20:03.117Z,18.10
2023-12-05T11:22:37.045Z,18.77
2023-12-05T11:25:11.536Z,18.97
2023-12-05T11:27:45.380Z,19.17
2023-12-05T11:30:27.581Z,18.70
2023-12-05T11:33:03.483Z,18.73
2023-12-05T11:35:34.478Z,18.50
2023-12-05T11:38:09.971Z,18.23
2023-12-05T11:40:37.950Z,20.17
2023-12-05T11:43:06.701Z,20.70
2023-12-05T11:45:37.370Z,23.00
2023-12-05T11:48:05.491Z,22.80
2023-12-05T11:50:43.143Z,21.87
2023-12-05T11:53:13.846Z,22.20
2023-12-05T11:55:43.912Z,20.80
2023-12-05T11:58:26.543Z,20.00
2023-12-05T12:01:02.286Z,19.97
2023-12-05T12:03:30.527Z,19.60
2023-12-05T12:06:03.020Z,20.37
2023-12-05T12:08:32.440Z,19.40
2023-12-05T12:11:01.206Z,20.40
2023-12-05T12:13:29.133Z,19.27
2023-12-05T12:15:57.140Z,19.87
2023-12-05T12:18:30.530Z,19.53
2023-12-05T12:21:04.339Z,18.63
2023-12-05T12:23:33.576Z,18.20
2023-12-05T12:26:01.955Z,18.50
2023-12-05T12:28:30.969Z,17.40
2023-12-05T12:31:00.276Z,18.43
2023-12-05T12:33:37.645Z,18.83
2023-12-05T12:36:06.225Z,18.63
2023-12-05T12:38:35.615Z,18.67
2023-12-05T12:41:04.134Z,19.03
2023-12-05T12:43:31.925Z,18.47
2023-12-05T12:46:02.022Z,18.30
2023-12-05T12:48:30.463Z,18.10
2023-12-05T12:50:58.292Z,19.93
2023-12-05T12:53:26.937Z,18.67
2023-12-05T12:55:56.765Z,20.20
2023-12-05T12:58:34.094Z,18.90
2023-12-05T13:01:02.530Z,19.50
2023-12-05T13:03:30.376Z,21.57
2023-12-05T13:05:59.120Z,21.20
2023-12-05T13:08:27.152Z,21.97
2023-12-05T13:10:57.350Z,22.03
2023-12-05T13:13:25.278Z,22.70
2023-12-05T13:15:53.280Z,21.13
2023-12-05T13:18:21.176Z,22.43
2023-12-05T13:20:50.656Z,22.77
2023-12-05T13:23:19.434Z,21.97
2023-12-05T13:25:47.509Z,20.17
2023-12-05T13:28:16.977Z,21.40
2023-12-05T13:30:45.306Z,20.17
2023-12-05T13:33:16.532Z,21.80
2023-12-05T13:35:45.074Z,21.17
2023-12-05T13:38:13.238Z,21.50
2023-12-05T13:40:41.212Z,21.80
2023-12-05T13:43:08.961Z,21.40
2023-12-05T13:45:38.788Z,22.17
2023-12-05T13:48:07.412Z,21.93
2023-12-05T13:50:35.370Z,21.47
2023-12-05T13:53:03.774Z,21.37
2023-12-05T13:55:31.926Z,23.87
2023-12-05T13:58:00.408Z,23.43
2023-12-05T14:00:28.704Z,23.60
2023-12-05T14:02:58.122Z,23.23
2023-12-05T14:05:26.663Z,24.23
2023-12-05T14:07:54.428Z,24.60
2023-12-05T14:10:22.286Z,25.73
2023-12-05T14:12:50.112Z,25.87
2023-12-05T14:15:18.406Z,24.37
2023-12-05T14:17:46.077Z,26.00
2023-12-05T14:22:45.088Z,26.33
2023-12-05T14:25:13.080Z,28.90
2023-12-05T14:27:41.041Z,28.37
2023-12-05T14:30:09.644Z,27.57
2023-12-05T14:32:37.664Z,28.77
2023-12-05T14:35:06.102Z,28.57
2023-12-05T14:37:35.416Z,28.67
2023-12-05T14:40:03.238Z,29.90
2023-12-05T14:42:31.243Z,30.60
2023-12-05T14:44:59.162Z,29.33
2023-12-05T14:47:27.817Z,30.80
2023-12-05T14:49:56.077Z,31.33
2023-12-05T14:52:24.539Z,30.40
2023-12-05T14:54:54.260Z,31.67
2023-12-05T14:57:24.829Z,31.80
2023-12-05T14:59:56.334Z,32.00
2023-12-05T15:02:24.512Z,33.77
2023-12-05T15:04:52.519Z,33.10
2023-12-05T15:07:20.799Z,33.53
2023-12-05T15:09:48.702Z,33.97
2023-12-05T15:12:18.093Z,34.77
2023-12-05T15:14:46.555Z,35.90
2023-12-05T15:17:14.624Z,34.90
2023-12-05T15:20:17.327Z,35.47
2023-12-05T15:22:30.969Z,35.50
2023-12-05T15:24:58.775Z,34.10
2023-12-05T15:27:28.469Z,35.53
2023-12-05T15:29:57.849Z,36.20
2023-12-05T15:32:27.927Z,36.63
2023-12-05T15:34:55.983Z,33.43
2023-12-05T15:37:24.171Z,35.37
2023-12-05T15:39:52.182Z,36.03
2023-12-05T15:42:19.942Z,37.37
2023-12-05T15:44:49.605Z,38.17
2023-12-05T15:47:17.644Z,36.63
2023-12-05T15:49:45.972Z,37.30
2023-12-05T15:52:13.993Z,37.50
2023-12-05T15:54:41.831Z,40.57
2023-12-05T15:57:09.736Z,42.00
2023-12-05T15:59:37.740Z,45.30
2023-12-05T16:02:07.647Z,38.57
2023-12-05T16:04:35.854Z,39.70
2023-12-05T16:07:04.004Z,40.57
2023-12-05T16:09:32.172Z,37.73
2023-12-05T16:12:00.057Z,39.50
2023-12-05T16:14:28.955Z,39.67
2023-12-05T16:16:56.646Z,40.50
2023-12-05T16:19:27.060Z,40.57
2023-12-05T16:21:55.176Z,39.90
2023-12-05T16:24:23.030Z,41.50
2023-12-05T16:26:51.721Z,40.00
2023-12-05T16:29:19.718Z,40.60
2023-12-05T16:31:47.526Z,39.80
2023-12-05T16:34:15.461Z,43.53
2023-12-05T16:36:46.991Z,39.97
2023-12-05T16:39:16.061Z,42.20
2023-12-05T16:41:43.919Z,40.00
2023-12-05T16:44:12.351Z,41.87
2023-12-05T16:46:40.020Z,42.50
2023-12-05T16:49:07.889Z,41.13
2023-12-05T16:51:35.881Z,42.07
2023-12-05T16:54:05.522Z,42.60
2023-12-05T16:56:33.343Z,45.10
2023-12-05T16:59:02.129Z,43.17
2023-12-05T17:01:30.022Z,41.73
2023-12-05T17:03:58.308Z,44.80
2023-12-05T17:06:26.177Z,43.30
2023-12-05T17:08:53.920Z,42.60
2023-12-05T17:11:23.038Z,43.77
2023-12-05T17:13:51.371Z,46.23
2023-12-05T17:16:19.150Z,47.33
2023-12-05T17:18:47.691Z,48.53
2023-12-05T17:21:15.631Z,45.30
2023-12-05T17:23:43.405Z,46.67
2023-12-05T17:26:11.089Z,45.20
2023-12-05T17:28:40.407Z,46.17
2023-12-05T17:31:08.492Z,46.80
2023-12-05T17:33:36.754Z,46.27
2023-12-05T17:36:04.919Z,48.60
2023-12-05T17:38:32.625Z,48.80
2023-12-05T17:41:00.534Z,48.30
2023-12-05T17:43:28.659Z,49.70
2023-12-05T17:45:58.050Z,54.37
2023-12-05T17:48:27.826Z,52.17
2023-12-05T17:50:55.878Z,51.07
2023-12-05T17:53:24.276Z,51.70
2023-12-05T17:55:52.623Z,52.70
2023-12-05T17:58:20.790Z,51.07
2023-12-05T18:00:48.795Z,61.93
2023-12-05T18:03:18.470Z,51.53
2023-12-05T18:05:46.824Z,52.97
2023-12-05T18:08:15.095Z,56.80
2023-12-05T18:10:43.254Z,52.70
2023-12-05T18:13:12.825Z,52.03
2023-12-05T18:15:40.950Z,54.37
2023-12-05T18:18:12.438Z,55.53
2023-12-05T18:20:43.048Z,53.53
2023-12-05T18:23:13.249Z,52.43
2023-12-05T18:25:41.622Z,55.60
2023-12-05T18:28:09.741Z,54.93
2023-12-05T18:30:39.633Z,54.33
2023-12-05T18:33:07.512Z,52.57
2023-12-05T18:35:35.236Z,52.20
2023-12-05T18:38:05.148Z,53.90
2023-12-05T18:40:32.953Z,56.77
2023-12-05T18:43:01.284Z,53.70
2023-12-05T18:45:30.506Z,57.17
2023-12-05T18:47:58.457Z,53.90
2023-12-05T18:50:26.476Z,54.70
2023-12-05T18:52:54.559Z,54.00
2023-12-05T18:55:23.749Z,54.43
2023-12-05T18:57:51.953Z,55.30
2023-12-05T19:00:20.565Z,53.70
2023-12-05T19:02:49.993Z,54.90
2023-12-05T19:05:17.793Z,55.60
2023-12-05T19:07:46.232Z,53.80
2023-12-05T19:10:14.872Z,54.27
2023-12-05T19:12:46.546Z,55.03
2023-12-05T19:15:16.080Z,52.23
2023-12-05T19:17:44.957Z,57.57
2023-12-05T19:20:13.207Z,57.23
2023-12-05T19:22:40.970Z,56.20
2023-12-05T19:25:09.046Z,57.50
2023-12-05T19:27:36.907Z,55.40
2023-12-05T19:30:08.447Z,57.10
2023-12-05T19:32:38.517Z,57.50
2023-12-05T19:35:08.188Z,58.03
2023-12-05T19:37:58.032Z,58.77
2023-12-05T19:40:25.865Z,58.50
2023-12-05T19:42:53.707Z,58.20
2023-12-05T19:45:23.443Z,56.43
2023-12-05T19:47:54.213Z,57.97
2023-12-05T19:50:22.004Z,55.87
2023-12-05T19:52:50.063Z,57.20
2023-12-05T19:55:18.023Z,58.43
2023-12-05T19:57:46.306Z,57.40
2023-12-05T20:00:14.304Z,60.57
2023-12-05T20:02:44.161Z,57.47
2023-12-05T20:05:12.154Z,58.90
2023-12-05T20:07:41.211Z,58.60
2023-12-05T20:10:09.716Z,60.57
2023-12-05T20:12:37.715Z,58.03
2023-12-05T20:15:05.955Z,60.67
2023-12-05T20:17:33.825Z,59.33
2023-12-05T20:20:03.721Z,61.23
2023-12-05T20:22:32.154Z,59.20
2023-12-05T20:24:59.951Z,58.67
2023-12-05T20:27:27.846Z,57.67
2023-12-05T20:29:57.277Z,57.87
2023-12-05T20:32:25.481Z,59.60
2023-12-05T20:34:53.277Z,59.83
2023-12-05T20:37:23.211Z,58.67
2023-12-05T20:39:51.248Z,59.13
2023-12-05T20:42:26.287Z,58.73
2023-12-05T20:44:56.311Z,57.70
2023-12-05T20:47:24.269Z,57.83
2023-12-05T20:49:52.071Z,61.40
2023-12-05T20:52:20.472Z,58.57
2023-12-05T20:54:50.523Z,59.70
2023-12-05T20:57:18.339Z,57.07
2023-12-05T20:59:46.274Z,59.90
2023-12-05T21:02:14.825Z,59.70
2023-12-05T21:04:43.665Z,58.40
2023-12-05T21:07:13.117Z,58.93
2023-12-05T21:09:41.561Z,57.30
2023-12-05T21:12:11.195Z,59.30
2023-12-05T21:14:39.883Z,58.17
2023-12-05T21:17:07.695Z,60.67
2023-12-05T21:19:35.517Z,57.50
2023-12-05T21:22:03.528Z,58.37
2023-12-05T21:24:34.581Z,57.80
2023-12-05T21:27:03.847Z,59.50
2023-12-05T21:29:32.979Z,60.27
2023-12-05T21:32:01.063Z,59.77
2023-12-05T21:34:30.058Z,58.17
2023-12-05T21:36:58.394Z,59.63
2023-12-05T21:39:27.237Z,58.47
2023-12-05T21:41:55.253Z,59.77
2023-12-05T21:44:23.185Z,56.17
2023-12-05T21:46:53.860Z,58.13
2023-12-05T21:49:21.819Z,58.00
2023-12-05T21:51:50.330Z,57.47
2023-12-05T21:54:18.142Z,60.37
2023-12-05T21:56:47.370Z,61.17
2023-12-05T21:59:15.896Z,57.87
2023-12-05T22:01:44.033Z,56.13
2023-12-05T22:04:13.382Z,56.57
2023-12-05T22:06:41.355Z,58.90
2023-12-05T22:09:09.747Z,57.33
2023-12-05T22:11:37.528Z,58.03
2023-12-05T22:14:07.338Z,57.37
2023-12-05T22:16:35.073Z,58.23
2023-12-05T22:19:03.253Z,57.07
2023-12-05T22:21:32.651Z,58.50
2023-12-05T22:24:00.411Z,59.63
2023-12-05T22:26:28.066Z,58.47
2023-12-05T22:28:56.182Z,59.80
2023-12-05T22:31:24.423Z,56.53
2023-12-05T22:33:52.671Z,57.83
2023-12-05T22:36:21.807Z,58.00
2023-12-05T22:38:50.953Z,57.43
2023-12-05T22:41:18.678Z,57.40
2023-12-05T22:43:48.305Z,56.53
2023-12-05T22:46:17.489Z,58.77
2023-12-05T22:48:46.088Z,61.10
2023-12-05T22:51:13.984Z,57.57
2023-12-05T22:53:42.143Z,57.70
2023-12-05T22:56:12.183Z,55.57
2023-12-05T22:58:40.406Z,56.63
2023-12-05T23:01:08.274Z,59.97
2023-12-05T23:03:37.145Z,58.70
2023-12-05T23:06:05.284Z,59.20
2023-12-05T23:08:34.848Z,61.43
2023-12-05T23:11:03.202Z,56.40
2023-12-05T23:13:32.526Z,58.50
2023-12-05T23:16:00.704Z,59.70
2023-12-05T23:18:31.669Z,61.37
2023-12-05T23:20:59.560Z,57.13
2023-12-05T23:23:27.363Z,58.60
2023-12-05T23:25:55.092Z,59.10
2023-12-05T23:28:25.850Z,61.17
2023-12-05T23:30:55.543Z,59.93
2023-12-05T23:33:24.015Z,58.97
2023-12-05T23:35:52.434Z,59.83
2023-12-05T23:38:21.098Z,56.07
2023-12-05T23:40:49.344Z,57.70
2023-12-05T23:43:17.150Z,61.27
2023-12-05T23:45:45.273Z,58.50
2023-12-05T23:48:14.466Z,56.23
2023-12-05T23:50:43.270Z,54.87
2023-12-05T23:53:10.966Z,56.93
2023-12-05T23:55:39.271Z,54.97
2023-12-05T23:58:08.026Z,55.23
